KHST/HST METAR and TAF weather

Enter ICAO airport designator
Station Type Date Time Source
KHST METAR 2021/09/28 03:56 UTC NOAA

KHST 280356Z AUTO 01005KT 10SM FEW033 26/21 A3001 RMK AO2 SLP166 T02570207


Station Type Date Time Source
KHST Decoded METAR 2021/09/28 03:56 UTC NOAA

Homestead Air Force Base, FL, United States (KHST) 25-29N 080-23W
Sep 27, 2021 - 11:56 PM EDT / 2021.09.28 0356 UTC
Wind: from the N (010 degrees) at 6 MPH (5 KT):0
Visibility: 10 mile(s):0
Sky conditions: mostly clear
Temperature: 78.3 F (25.7 C)
Dew Point: 69.3 F (20.7 C)
Relative Humidity: 73%
Pressure (altimeter): 30.01 in. Hg (1016 hPa)
ob: KHST 280356Z AUTO 01005KT 10SM FEW033 26/21 A3001 RMK AO2 SLP166 T02570207
cycle: 4

Station Type Date Time Source
KHST TAF 2021/09/28 03:08 UTC NOAA

TAF KHST 280300Z 2803/2909 04008KT 9999 SCT030 QNH2995INS
BECMG 2814/2815 06010G15KT 9999 FEW035 QNH2990INS
BECMG 2823/2824 04008KT 9999 FEW030 QNH2992INS TX30/2819Z TN22/2810Z

Example: see airport list